sensor_id;sensor_type;location;lat;lon;timestamp;P1;durP1;ratioP1;P2;durP2;ratioP2
24206;SDS011;12351;52.284;9.160;2022-09-30T00:01:05;4.20;;;3.72;;
24206;SDS011;12351;52.284;9.160;2022-09-30T00:03:53;9.20;;;3.60;;
24206;SDS011;12351;52.284;9.160;2022-09-30T00:06:41;7.20;;;4.45;;
24206;SDS011;12351;52.284;9.160;2022-09-30T00:09:28;6.35;;;4.65;;
24206;SDS011;12351;52.284;9.160;2022-09-30T00:12:16;4.95;;;4.12;;
24206;SDS011;12351;52.284;9.160;2022-09-30T00:15:03;5.90;;;4.37;;
24206;SDS011;12351;52.284;9.160;2022-09-30T00:17:50;6.40;;;5.10;;
24206;SDS011;12351;52.284;9.160;2022-09-30T00:20:38;6.28;;;4.10;;
24206;SDS011;12351;52.284;9.160;2022-09-30T00:23:25;4.60;;;4.12;;
24206;SDS011;12351;52.284;9.160;2022-09-30T00:26:13;5.15;;;4.30;;
24206;SDS011;12351;52.284;9.160;2022-09-30T00:29:02;7.35;;;3.55;;
24206;SDS011;12351;52.284;9.160;2022-09-30T00:31:50;5.75;;;3.27;;
24206;SDS011;12351;52.284;9.160;2022-09-30T00:34:37;9.25;;;3.77;;
24206;SDS011;12351;52.284;9.160;2022-09-30T00:37:24;6.75;;;3.67;;
24206;SDS011;12351;52.284;9.160;2022-09-30T00:40:11;6.90;;;4.65;;
24206;SDS011;12351;52.284;9.160;2022-09-30T00:42:58;6.33;;;4.95;;
24206;SDS011;12351;52.284;9.160;2022-09-30T00:45:48;4.75;;;4.12;;
24206;SDS011;12351;52.284;9.160;2022-09-30T00:48:36;7.30;;;4.70;;
24206;SDS011;12351;52.284;9.160;2022-09-30T00:54:15;5.85;;;5.00;;
24206;SDS011;12351;52.284;9.160;2022-09-30T00:57:04;6.30;;;5.33;;
24206;SDS011;12351;52.284;9.160;2022-09-30T00:59:53;8.28;;;4.83;;
24206;SDS011;12351;52.284;9.160;2022-09-30T01:02:40;6.08;;;5.20;;
24206;SDS011;12351;52.284;9.160;2022-09-30T01:05:28;5.92;;;4.70;;
24206;SDS011;12351;52.284;9.160;2022-09-30T01:08:18;7.50;;;4.50;;
24206;SDS011;12351;52.284;9.160;2022-09-30T01:11:07;5.83;;;5.20;;
24206;SDS011;12351;52.284;9.160;2022-09-30T01:13:56;6.03;;;4.58;;
24206;SDS011;12351;52.284;9.160;2022-09-30T01:50:23;10.13;;;6.45;;
24206;SDS011;12351;52.284;9.160;2022-09-30T01:53:14;6.40;;;5.72;;
24206;SDS011;12351;52.284;9.160;2022-09-30T01:55:53;10.10;;;6.37;;
24206;SDS011;12351;52.284;9.160;2022-09-30T02:07:17;7.85;;;6.15;;
24206;SDS011;12351;52.284;9.160;2022-09-30T02:10:06;7.33;;;5.62;;
24206;SDS011;12351;52.284;9.160;2022-09-30T02:12:46;6.15;;;5.55;;
24206;SDS011;12351;52.284;9.160;2022-09-30T02:15:38;6.58;;;5.08;;
24206;SDS011;12351;52.284;9.160;2022-09-30T02:18:28;6.58;;;5.70;;
24206;SDS011;12351;52.284;9.160;2022-09-30T02:21:20;8.23;;;6.78;;
24206;SDS011;12351;52.284;9.160;2022-09-30T02:30:09;10.77;;;6.80;;
24206;SDS011;12351;52.284;9.160;2022-09-30T02:33:01;8.50;;;7.05;;
24206;SDS011;12351;52.284;9.160;2022-09-30T02:35:51;9.30;;;7.50;;
24206;SDS011;12351;52.284;9.160;2022-09-30T02:38:42;7.80;;;7.00;;
24206;SDS011;12351;52.284;9.160;2022-09-30T02:41:34;8.95;;;7.03;;
24206;SDS011;12351;52.284;9.160;2022-09-30T02:44:22;9.25;;;6.65;;
24206;SDS011;12351;52.284;9.160;2022-09-30T02:47:11;8.33;;;7.10;;
24206;SDS011;12351;52.284;9.160;2022-09-30T02:58:33;7.97;;;6.63;;
24206;SDS011;12351;52.284;9.160;2022-09-30T03:01:24;9.70;;;6.75;;
24206;SDS011;12351;52.284;9.160;2022-09-30T03:04:12;7.95;;;6.90;;
24206;SDS011;12351;52.284;9.160;2022-09-30T03:07:02;8.60;;;7.33;;
24206;SDS011;12351;52.284;9.160;2022-09-30T03:09:49;8.40;;;6.80;;
24206;SDS011;12351;52.284;9.160;2022-09-30T03:12:43;8.03;;;6.42;;
24206;SDS011;12351;52.284;9.160;2022-09-30T03:15:33;8.63;;;6.62;;
24206;SDS011;12351;52.284;9.160;2022-09-30T03:24:05;9.20;;;6.40;;
24206;SDS011;12351;52.284;9.160;2022-09-30T03:26:53;10.15;;;6.17;;
24206;SDS011;12351;52.284;9.160;2022-09-30T03:29:44;8.10;;;6.10;;
24206;SDS011;12351;52.284;9.160;2022-09-30T03:46:35;8.85;;;6.87;;
24206;SDS011;12351;52.284;9.160;2022-09-30T03:49:27;7.95;;;6.67;;
24206;SDS011;12351;52.284;9.160;2022-09-30T03:52:14;9.20;;;7.33;;
24206;SDS011;12351;52.284;9.160;2022-09-30T03:55:04;9.53;;;6.85;;
24206;SDS011;12351;52.284;9.160;2022-09-30T03:57:53;11.68;;;6.20;;
24206;SDS011;12351;52.284;9.160;2022-09-30T04:00:45;7.67;;;6.67;;
24206;SDS011;12351;52.284;9.160;2022-09-30T04:03:33;8.53;;;7.00;;
24206;SDS011;12351;52.284;9.160;2022-09-30T04:06:22;10.25;;;7.40;;
24206;SDS011;12351;52.284;9.160;2022-09-30T04:09:10;10.53;;;6.95;;
24206;SDS011;12351;52.284;9.160;2022-09-30T04:11:58;9.45;;;8.03;;
24206;SDS011;12351;52.284;9.160;2022-09-30T04:14:44;9.03;;;8.13;;
24206;SDS011;12351;52.284;9.160;2022-09-30T04:17:31;8.85;;;7.95;;
24206;SDS011;12351;52.284;9.160;2022-09-30T04:20:18;11.38;;;8.23;;
24206;SDS011;12351;52.284;9.160;2022-09-30T04:23:05;12.07;;;8.40;;
24206;SDS011;12351;52.284;9.160;2022-09-30T04:25:53;8.70;;;7.75;;
24206;SDS011;12351;52.284;9.160;2022-09-30T04:28:41;12.18;;;7.95;;
24206;SDS011;12351;52.284;9.160;2022-09-30T04:31:28;10.78;;;8.60;;
24206;SDS011;12351;52.284;9.160;2022-09-30T04:34:15;8.95;;;8.05;;
24206;SDS011;12351;52.284;9.160;2022-09-30T04:37:02;10.05;;;8.00;;
24206;SDS011;12351;52.284;9.160;2022-09-30T04:39:50;11.30;;;8.50;;
24206;SDS011;12351;52.284;9.160;2022-09-30T04:42:37;11.63;;;8.28;;
24206;SDS011;12351;52.284;9.160;2022-09-30T04:45:27;8.98;;;8.08;;
24206;SDS011;12351;52.284;9.160;2022-09-30T04:48:14;13.25;;;8.93;;
24206;SDS011;12351;52.284;9.160;2022-09-30T04:51:01;9.78;;;8.45;;
24206;SDS011;12351;52.284;9.160;2022-09-30T04:53:48;9.08;;;7.90;;
24206;SDS011;12351;52.284;9.160;2022-09-30T04:56:36;10.10;;;8.40;;
24206;SDS011;12351;52.284;9.160;2022-09-30T04:59:23;11.48;;;9.15;;
24206;SDS011;12351;52.284;9.160;2022-09-30T05:02:10;9.10;;;8.20;;
24206;SDS011;12351;52.284;9.160;2022-09-30T05:04:58;9.93;;;8.25;;
24206;SDS011;12351;52.284;9.160;2022-09-30T05:07:47;11.57;;;8.38;;
24206;SDS011;12351;52.284;9.160;2022-09-30T05:10:37;9.73;;;8.50;;
24206;SDS011;12351;52.284;9.160;2022-09-30T05:13:28;9.75;;;8.75;;
24206;SDS011;12351;52.284;9.160;2022-09-30T05:16:15;10.93;;;7.53;;
24206;SDS011;12351;52.284;9.160;2022-09-30T05:19:02;9.75;;;8.05;;
24206;SDS011;12351;52.284;9.160;2022-09-30T05:21:49;11.40;;;8.23;;
24206;SDS011;12351;52.284;9.160;2022-09-30T05:24:36;8.13;;;7.33;;
24206;SDS011;12351;52.284;9.160;2022-09-30T05:27:23;8.08;;;7.28;;
24206;SDS011;12351;52.284;9.160;2022-09-30T05:30:11;8.20;;;7.28;;
24206;SDS011;12351;52.284;9.160;2022-09-30T05:32:58;8.75;;;7.85;;
24206;SDS011;12351;52.284;9.160;2022-09-30T05:35:45;8.50;;;7.60;;
24206;SDS011;12351;52.284;9.160;2022-09-30T05:38:33;11.40;;;7.28;;
24206;SDS011;12351;52.284;9.160;2022-09-30T05:41:20;9.08;;;8.18;;
24206;SDS011;12351;52.284;9.160;2022-09-30T05:44:08;10.23;;;7.85;;
24206;SDS011;12351;52.284;9.160;2022-09-30T05:46:56;11.70;;;7.80;;
24206;SDS011;12351;52.284;9.160;2022-09-30T05:49:43;10.35;;;7.78;;
24206;SDS011;12351;52.284;9.160;2022-09-30T05:52:31;11.00;;;7.45;;
24206;SDS011;12351;52.284;9.160;2022-09-30T05:55:18;9.38;;;8.15;;
24206;SDS011;12351;52.284;9.160;2022-09-30T05:58:06;10.50;;;8.28;;
24206;SDS011;12351;52.284;9.160;2022-09-30T06:00:53;11.12;;;8.73;;
24206;SDS011;12351;52.284;9.160;2022-09-30T06:03:41;9.40;;;8.35;;
24206;SDS011;12351;52.284;9.160;2022-09-30T06:06:29;9.93;;;8.13;;
24206;SDS011;12351;52.284;9.160;2022-09-30T06:09:15;8.58;;;7.62;;
24206;SDS011;12351;52.284;9.160;2022-09-30T06:12:03;10.45;;;7.72;;
24206;SDS011;12351;52.284;9.160;2022-09-30T06:14:50;8.53;;;7.65;;
24206;SDS011;12351;52.284;9.160;2022-09-30T06:17:37;9.20;;;7.87;;
24206;SDS011;12351;52.284;9.160;2022-09-30T06:20:25;10.05;;;7.83;;
24206;SDS011;12351;52.284;9.160;2022-09-30T06:23:12;8.58;;;7.65;;
24206;SDS011;12351;52.284;9.160;2022-09-30T06:26:00;8.78;;;7.87;;
24206;SDS011;12351;52.284;9.160;2022-09-30T06:28:48;8.50;;;7.70;;
24206;SDS011;12351;52.284;9.160;2022-09-30T06:31:36;8.88;;;7.65;;
24206;SDS011;12351;52.284;9.160;2022-09-30T06:34:23;12.28;;;8.53;;
24206;SDS011;12351;52.284;9.160;2022-09-30T06:37:10;10.35;;;8.13;;
24206;SDS011;12351;52.284;9.160;2022-09-30T06:39:57;8.90;;;7.70;;
24206;SDS011;12351;52.284;9.160;2022-09-30T06:42:45;13.15;;;7.72;;
24206;SDS011;12351;52.284;9.160;2022-09-30T06:45:34;9.48;;;7.78;;
24206;SDS011;12351;52.284;9.160;2022-09-30T06:48:21;8.93;;;7.55;;
24206;SDS011;12351;52.284;9.160;2022-09-30T06:51:08;13.13;;;7.72;;
24206;SDS011;12351;52.284;9.160;2022-09-30T06:53:56;9.35;;;7.30;;
24206;SDS011;12351;52.284;9.160;2022-09-30T06:56:45;9.55;;;7.53;;
24206;SDS011;12351;52.284;9.160;2022-09-30T06:59:33;9.45;;;7.83;;
24206;SDS011;12351;52.284;9.160;2022-09-30T07:02:20;11.08;;;7.30;;
24206;SDS011;12351;52.284;9.160;2022-09-30T07:05:08;9.65;;;7.62;;
24206;SDS011;12351;52.284;9.160;2022-09-30T07:07:55;8.53;;;7.45;;
24206;SDS011;12351;52.284;9.160;2022-09-30T07:10:45;7.97;;;6.90;;
24206;SDS011;12351;52.284;9.160;2022-09-30T07:13:32;10.32;;;7.17;;
24206;SDS011;12351;52.284;9.160;2022-09-30T07:16:19;8.23;;;6.92;;
24206;SDS011;12351;52.284;9.160;2022-09-30T07:19:06;8.68;;;6.75;;
24206;SDS011;12351;52.284;9.160;2022-09-30T07:21:55;9.83;;;7.00;;
24206;SDS011;12351;52.284;9.160;2022-09-30T07:24:44;8.75;;;6.97;;
24206;SDS011;12351;52.284;9.160;2022-09-30T07:27:31;8.55;;;6.35;;
24206;SDS011;12351;52.284;9.160;2022-09-30T07:30:19;9.10;;;6.58;;
24206;SDS011;12351;52.284;9.160;2022-09-30T07:33:07;9.43;;;6.55;;
24206;SDS011;12351;52.284;9.160;2022-09-30T07:35:56;11.33;;;6.53;;
24206;SDS011;12351;52.284;9.160;2022-09-30T07:38:44;10.30;;;6.70;;
24206;SDS011;12351;52.284;9.160;2022-09-30T07:41:35;10.00;;;7.55;;
24206;SDS011;12351;52.284;9.160;2022-09-30T07:44:24;9.60;;;6.80;;
24206;SDS011;12351;52.284;9.160;2022-09-30T07:47:10;9.23;;;7.05;;
24206;SDS011;12351;52.284;9.160;2022-09-30T07:49:59;14.65;;;8.10;;
24206;SDS011;12351;52.284;9.160;2022-09-30T07:52:46;8.65;;;6.60;;
24206;SDS011;12351;52.284;9.160;2022-09-30T07:55:33;7.90;;;7.10;;
24206;SDS011;12351;52.284;9.160;2022-09-30T07:58:21;9.18;;;7.12;;
24206;SDS011;12351;52.284;9.160;2022-09-30T08:01:08;8.08;;;7.03;;
24206;SDS011;12351;52.284;9.160;2022-09-30T08:03:56;9.13;;;6.97;;
24206;SDS011;12351;52.284;9.160;2022-09-30T08:06:47;10.23;;;7.92;;
24206;SDS011;12351;52.284;9.160;2022-09-30T08:09:35;8.08;;;7.28;;
24206;SDS011;12351;52.284;9.160;2022-09-30T08:12:22;7.92;;;7.12;;
24206;SDS011;12351;52.284;9.160;2022-09-30T08:15:10;9.43;;;7.50;;
24206;SDS011;12351;52.284;9.160;2022-09-30T08:17:57;7.87;;;6.55;;
24206;SDS011;12351;52.284;9.160;2022-09-30T08:20:44;8.10;;;7.25;;
24206;SDS011;12351;52.284;9.160;2022-09-30T08:23:32;7.75;;;5.60;;
24206;SDS011;12351;52.284;9.160;2022-09-30T08:26:20;8.88;;;6.53;;
24206;SDS011;12351;52.284;9.160;2022-09-30T08:29:07;9.13;;;6.37;;
24206;SDS011;12351;52.284;9.160;2022-09-30T08:31:55;7.83;;;6.67;;
24206;SDS011;12351;52.284;9.160;2022-09-30T08:34:42;9.23;;;8.10;;
24206;SDS011;12351;52.284;9.160;2022-09-30T08:37:29;11.08;;;8.88;;
24206;SDS011;12351;52.284;9.160;2022-09-30T08:40:18;12.35;;;8.10;;
24206;SDS011;12351;52.284;9.160;2022-09-30T08:43:09;8.18;;;7.25;;
24206;SDS011;12351;52.284;9.160;2022-09-30T08:48:51;8.75;;;6.65;;
24206;SDS011;12351;52.284;9.160;2022-09-30T08:51:38;7.42;;;6.08;;
24206;SDS011;12351;52.284;9.160;2022-09-30T08:54:29;7.33;;;5.87;;
24206;SDS011;12351;52.284;9.160;2022-09-30T08:57:17;8.73;;;6.67;;
24206;SDS011;12351;52.284;9.160;2022-09-30T09:00:06;8.53;;;6.25;;
24206;SDS011;12351;52.284;9.160;2022-09-30T09:02:56;7.70;;;5.92;;
24206;SDS011;12351;52.284;9.160;2022-09-30T09:22:48;8.28;;;7.03;;
24206;SDS011;12351;52.284;9.160;2022-09-30T09:25:37;9.48;;;6.58;;
24206;SDS011;12351;52.284;9.160;2022-09-30T09:31:15;10.20;;;6.72;;
24206;SDS011;12351;52.284;9.160;2022-09-30T09:39:50;7.95;;;6.30;;
24206;SDS011;12351;52.284;9.160;2022-09-30T09:42:38;9.38;;;6.90;;
24206;SDS011;12351;52.284;9.160;2022-09-30T09:48:15;8.73;;;5.78;;
24206;SDS011;12351;52.284;9.160;2022-09-30T09:51:04;9.25;;;6.72;;
24206;SDS011;12351;52.284;9.160;2022-09-30T09:53:52;9.83;;;6.95;;
24206;SDS011;12351;52.284;9.160;2022-09-30T09:56:41;7.90;;;6.50;;
24206;SDS011;12351;52.284;9.160;2022-09-30T09:59:32;7.33;;;5.92;;
24206;SDS011;12351;52.284;9.160;2022-09-30T10:05:15;10.48;;;6.75;;
24206;SDS011;12351;52.284;9.160;2022-09-30T10:10:49;7.37;;;6.45;;
24206;SDS011;12351;52.284;9.160;2022-09-30T10:19:21;8.18;;;7.00;;
24206;SDS011;12351;52.284;9.160;2022-09-30T10:24:48;9.28;;;7.20;;
24206;SDS011;12351;52.284;9.160;2022-09-30T10:27:35;8.15;;;6.97;;
24206;SDS011;12351;52.284;9.160;2022-09-30T10:33:15;7.70;;;6.72;;
24206;SDS011;12351;52.284;9.160;2022-09-30T10:36:06;8.25;;;6.40;;
24206;SDS011;12351;52.284;9.160;2022-09-30T10:38:59;7.83;;;6.08;;
24206;SDS011;12351;52.284;9.160;2022-09-30T10:41:46;6.87;;;5.47;;
24206;SDS011;12351;52.284;9.160;2022-09-30T10:44:37;7.35;;;5.20;;
24206;SDS011;12351;52.284;9.160;2022-09-30T10:47:24;7.22;;;6.10;;
24206;SDS011;12351;52.284;9.160;2022-09-30T10:50:13;9.25;;;6.28;;
24206;SDS011;12351;52.284;9.160;2022-09-30T10:53:09;8.68;;;7.03;;
24206;SDS011;12351;52.284;9.160;2022-09-30T10:55:55;9.38;;;6.80;;
24206;SDS011;12351;52.284;9.160;2022-09-30T11:01:34;8.93;;;7.10;;
24206;SDS011;12351;52.284;9.160;2022-09-30T11:04:25;10.70;;;7.30;;
24206;SDS011;12351;52.284;9.160;2022-09-30T11:21:17;10.65;;;7.15;;
24206;SDS011;12351;52.284;9.160;2022-09-30T11:26:58;7.95;;;5.90;;
24206;SDS011;12351;52.284;9.160;2022-09-30T11:38:11;7.10;;;4.20;;
24206;SDS011;12351;52.284;9.160;2022-09-30T11:43:52;5.50;;;4.40;;
24206;SDS011;12351;52.284;9.160;2022-09-30T11:58:02;6.65;;;4.47;;
24206;SDS011;12351;52.284;9.160;2022-09-30T12:00:51;6.87;;;4.67;;
24206;SDS011;12351;52.284;9.160;2022-09-30T12:03:42;5.92;;;4.70;;
24206;SDS011;12351;52.284;9.160;2022-09-30T12:06:33;8.40;;;5.30;;
24206;SDS011;12351;52.284;9.160;2022-09-30T12:12:13;7.30;;;4.70;;
24206;SDS011;12351;52.284;9.160;2022-09-30T12:15:02;4.80;;;3.97;;
24206;SDS011;12351;52.284;9.160;2022-09-30T12:23:37;7.60;;;4.42;;
24206;SDS011;12351;52.284;9.160;2022-09-30T12:26:23;5.07;;;3.80;;
24206;SDS011;12351;52.284;9.160;2022-09-30T12:29:12;6.33;;;3.70;;
24206;SDS011;12351;52.284;9.160;2022-09-30T12:37:49;5.73;;;4.27;;
24206;SDS011;12351;52.284;9.160;2022-09-30T12:40:40;6.53;;;3.57;;
24206;SDS011;12351;52.284;9.160;2022-09-30T12:43:30;7.47;;;4.22;;
24206;SDS011;12351;52.284;9.160;2022-09-30T12:46:17;6.03;;;3.97;;
24206;SDS011;12351;52.284;9.160;2022-09-30T12:49:06;5.10;;;4.30;;
24206;SDS011;12351;52.284;9.160;2022-09-30T12:51:58;5.97;;;4.47;;
24206;SDS011;12351;52.284;9.160;2022-09-30T12:57:39;9.70;;;5.12;;
24206;SDS011;12351;52.284;9.160;2022-09-30T13:00:28;7.08;;;4.62;;
24206;SDS011;12351;52.284;9.160;2022-09-30T13:03:18;7.70;;;4.03;;
24206;SDS011;12351;52.284;9.160;2022-09-30T13:06:06;7.60;;;4.90;;
24206;SDS011;12351;52.284;9.160;2022-09-30T13:11:46;7.35;;;4.30;;
24206;SDS011;12351;52.284;9.160;2022-09-30T13:17:26;7.62;;;4.80;;
24206;SDS011;12351;52.284;9.160;2022-09-30T13:23:04;7.33;;;4.72;;
24206;SDS011;12351;52.284;9.160;2022-09-30T13:25:52;5.95;;;4.20;;
24206;SDS011;12351;52.284;9.160;2022-09-30T13:28:39;6.43;;;4.10;;
24206;SDS011;12351;52.284;9.160;2022-09-30T13:31:26;5.30;;;4.50;;
24206;SDS011;12351;52.284;9.160;2022-09-30T13:37:22;5.27;;;4.77;;
24206;SDS011;12351;52.284;9.160;2022-09-30T13:39:56;6.77;;;5.20;;
24206;SDS011;12351;52.284;9.160;2022-09-30T13:42:46;5.60;;;4.93;;
24206;SDS011;12351;52.284;9.160;2022-09-30T13:45:35;8.78;;;4.92;;
24206;SDS011;12351;52.284;9.160;2022-09-30T13:51:13;3.97;;;3.50;;
24206;SDS011;12351;52.284;9.160;2022-09-30T13:54:05;3.50;;;3.20;;
24206;SDS011;12351;52.284;9.160;2022-09-30T13:56:52;5.83;;;3.70;;
24206;SDS011;12351;52.284;9.160;2022-09-30T14:22:09;3.87;;;2.50;;
24206;SDS011;12351;52.284;9.160;2022-09-30T14:24:59;3.50;;;2.60;;
24206;SDS011;12351;52.284;9.160;2022-09-30T14:27:50;5.67;;;3.30;;
24206;SDS011;12351;52.284;9.160;2022-09-30T14:30:40;6.58;;;3.87;;
24206;SDS011;12351;52.284;9.160;2022-09-30T14:33:29;3.77;;;2.97;;
24206;SDS011;12351;52.284;9.160;2022-09-30T14:36:19;4.80;;;2.83;;
24206;SDS011;12351;52.284;9.160;2022-09-30T14:39:09;2.27;;;2.03;;
24206;SDS011;12351;52.284;9.160;2022-09-30T14:41:57;2.70;;;1.90;;
24206;SDS011;12351;52.284;9.160;2022-09-30T14:44:45;4.30;;;2.03;;
24206;SDS011;12351;52.284;9.160;2022-09-30T14:47:36;3.27;;;2.60;;
24206;SDS011;12351;52.284;9.160;2022-09-30T14:50:25;3.77;;;2.67;;
24206;SDS011;12351;52.284;9.160;2022-09-30T14:58:54;4.77;;;2.60;;
24206;SDS011;12351;52.284;9.160;2022-09-30T15:01:43;6.47;;;2.40;;
24206;SDS011;12351;52.284;9.160;2022-09-30T15:04:33;3.60;;;2.30;;
24206;SDS011;12351;52.284;9.160;2022-09-30T15:13:01;3.75;;;2.62;;
24206;SDS011;12351;52.284;9.160;2022-09-30T15:15:50;3.83;;;2.23;;
24206;SDS011;12351;52.284;9.160;2022-09-30T15:21:27;4.40;;;2.50;;
24206;SDS011;12351;52.284;9.160;2022-09-30T15:24:16;3.02;;;2.30;;
24206;SDS011;12351;52.284;9.160;2022-09-30T15:27:04;5.00;;;2.70;;
24206;SDS011;12351;52.284;9.160;2022-09-30T15:29:57;4.27;;;2.30;;
24206;SDS011;12351;52.284;9.160;2022-09-30T15:32:44;3.23;;;2.67;;
24206;SDS011;12351;52.284;9.160;2022-09-30T15:35:32;3.07;;;2.40;;
24206;SDS011;12351;52.284;9.160;2022-09-30T15:38:22;4.57;;;2.47;;
24206;SDS011;12351;52.284;9.160;2022-09-30T15:41:09;4.37;;;2.53;;
24206;SDS011;12351;52.284;9.160;2022-09-30T15:43:56;3.40;;;1.90;;
24206;SDS011;12351;52.284;9.160;2022-09-30T15:55:31;4.10;;;2.63;;
24206;SDS011;12351;52.284;9.160;2022-09-30T15:57:54;5.90;;;2.60;;
24206;SDS011;12351;52.284;9.160;2022-09-30T16:00:41;4.03;;;2.30;;
24206;SDS011;12351;52.284;9.160;2022-09-30T16:03:29;3.73;;;2.50;;
24206;SDS011;12351;52.284;9.160;2022-09-30T16:06:18;3.50;;;2.00;;
24206;SDS011;12351;52.284;9.160;2022-09-30T16:12:00;3.00;;;2.02;;
24206;SDS011;12351;52.284;9.160;2022-09-30T16:20:30;3.50;;;2.15;;
24206;SDS011;12351;52.284;9.160;2022-09-30T16:23:25;3.92;;;1.60;;
24206;SDS011;12351;52.284;9.160;2022-09-30T16:28:59;4.12;;;1.72;;
24206;SDS011;12351;52.284;9.160;2022-09-30T16:31:49;3.87;;;2.42;;
24206;SDS011;12351;52.284;9.160;2022-09-30T16:34:38;4.03;;;2.30;;
24206;SDS011;12351;52.284;9.160;2022-09-30T16:37:25;4.22;;;2.10;;
24206;SDS011;12351;52.284;9.160;2022-09-30T16:43:03;3.80;;;2.27;;
24206;SDS011;12351;52.284;9.160;2022-09-30T16:45:51;5.10;;;2.25;;
24206;SDS011;12351;52.284;9.160;2022-09-30T16:48:38;4.42;;;1.90;;
24206;SDS011;12351;52.284;9.160;2022-09-30T16:51:25;2.40;;;1.70;;
24206;SDS011;12351;52.284;9.160;2022-09-30T16:54:12;3.87;;;1.60;;
24206;SDS011;12351;52.284;9.160;2022-09-30T16:56:59;4.30;;;2.33;;
24206;SDS011;12351;52.284;9.160;2022-09-30T16:59:47;5.35;;;2.00;;
24206;SDS011;12351;52.284;9.160;2022-09-30T17:02:33;2.47;;;1.60;;
24206;SDS011;12351;52.284;9.160;2022-09-30T17:05:23;4.45;;;1.60;;
24206;SDS011;12351;52.284;9.160;2022-09-30T17:08:11;3.58;;;1.57;;
24206;SDS011;12351;52.284;9.160;2022-09-30T17:10:59;4.00;;;1.40;;
24206;SDS011;12351;52.284;9.160;2022-09-30T17:13:46;3.75;;;1.40;;
24206;SDS011;12351;52.284;9.160;2022-09-30T17:16:33;2.72;;;1.20;;
24206;SDS011;12351;52.284;9.160;2022-09-30T17:19:20;3.22;;;1.85;;
24206;SDS011;12351;52.284;9.160;2022-09-30T17:22:11;2.35;;;1.45;;
24206;SDS011;12351;52.284;9.160;2022-09-30T17:24:58;2.58;;;1.85;;
24206;SDS011;12351;52.284;9.160;2022-09-30T17:27:46;2.58;;;1.40;;
24206;SDS011;12351;52.284;9.160;2022-09-30T17:30:33;2.45;;;1.60;;
24206;SDS011;12351;52.284;9.160;2022-09-30T17:33:22;3.75;;;1.60;;
24206;SDS011;12351;52.284;9.160;2022-09-30T17:36:12;2.22;;;1.30;;
24206;SDS011;12351;52.284;9.160;2022-09-30T17:39:00;2.90;;;1.70;;
24206;SDS011;12351;52.284;9.160;2022-09-30T17:41:48;5.28;;;1.32;;
24206;SDS011;12351;52.284;9.160;2022-09-30T17:44:36;3.15;;;1.80;;
24206;SDS011;12351;52.284;9.160;2022-09-30T17:47:23;6.58;;;1.57;;
24206;SDS011;12351;52.284;9.160;2022-09-30T17:50:13;4.53;;;1.90;;
24206;SDS011;12351;52.284;9.160;2022-09-30T17:53:02;6.72;;;1.70;;
24206;SDS011;12351;52.284;9.160;2022-09-30T17:55:59;4.30;;;1.50;;
24206;SDS011;12351;52.284;9.160;2022-09-30T17:58:41;2.95;;;1.60;;
24206;SDS011;12351;52.284;9.160;2022-09-30T18:01:30;2.92;;;1.70;;
24206;SDS011;12351;52.284;9.160;2022-09-30T18:04:17;3.42;;;1.70;;
24206;SDS011;12351;52.284;9.160;2022-09-30T18:07:05;2.65;;;1.50;;
24206;SDS011;12351;52.284;9.160;2022-09-30T18:09:54;3.45;;;1.60;;
24206;SDS011;12351;52.284;9.160;2022-09-30T18:12:41;3.00;;;1.40;;
24206;SDS011;12351;52.284;9.160;2022-09-30T18:15:28;2.75;;;1.60;;
24206;SDS011;12351;52.284;9.160;2022-09-30T18:18:15;4.67;;;1.80;;
24206;SDS011;12351;52.284;9.160;2022-09-30T18:21:02;4.12;;;1.52;;
24206;SDS011;12351;52.284;9.160;2022-09-30T18:23:50;1.87;;;1.40;;
24206;SDS011;12351;52.284;9.160;2022-09-30T18:26:40;3.45;;;1.70;;
24206;SDS011;12351;52.284;9.160;2022-09-30T18:29:27;7.83;;;1.90;;
24206;SDS011;12351;52.284;9.160;2022-09-30T18:32:14;2.90;;;1.57;;
24206;SDS011;12351;52.284;9.160;2022-09-30T18:35:01;3.27;;;1.60;;
24206;SDS011;12351;52.284;9.160;2022-09-30T18:37:50;2.75;;;1.62;;
24206;SDS011;12351;52.284;9.160;2022-09-30T18:40:39;1.82;;;1.40;;
24206;SDS011;12351;52.284;9.160;2022-09-30T18:43:27;4.25;;;1.65;;
24206;SDS011;12351;52.284;9.160;2022-09-30T18:46:15;3.08;;;1.70;;
24206;SDS011;12351;52.284;9.160;2022-09-30T18:49:03;2.37;;;1.62;;
24206;SDS011;12351;52.284;9.160;2022-09-30T18:51:50;5.25;;;1.50;;
24206;SDS011;12351;52.284;9.160;2022-09-30T18:54:37;4.62;;;1.50;;
24206;SDS011;12351;52.284;9.160;2022-09-30T18:57:24;4.15;;;1.70;;
24206;SDS011;12351;52.284;9.160;2022-09-30T19:00:11;2.40;;;1.65;;
24206;SDS011;12351;52.284;9.160;2022-09-30T19:02:58;3.62;;;1.42;;
24206;SDS011;12351;52.284;9.160;2022-09-30T19:05:45;4.28;;;1.50;;
24206;SDS011;12351;52.284;9.160;2022-09-30T19:08:32;1.52;;;1.27;;
24206;SDS011;12351;52.284;9.160;2022-09-30T19:11:19;2.83;;;1.25;;
24206;SDS011;12351;52.284;9.160;2022-09-30T19:14:08;1.35;;;1.00;;
24206;SDS011;12351;52.284;9.160;2022-09-30T19:16:56;1.17;;;1.00;;
24206;SDS011;12351;52.284;9.160;2022-09-30T19:19:43;2.08;;;1.27;;
24206;SDS011;12351;52.284;9.160;2022-09-30T19:22:31;2.17;;;1.37;;
24206;SDS011;12351;52.284;9.160;2022-09-30T19:25:20;2.45;;;1.20;;
24206;SDS011;12351;52.284;9.160;2022-09-30T19:28:06;30.02;;;26.20;;
24206;SDS011;12351;52.284;9.160;2022-09-30T19:30:54;4.37;;;1.70;;
24206;SDS011;12351;52.284;9.160;2022-09-30T19:33:40;2.60;;;1.00;;
24206;SDS011;12351;52.284;9.160;2022-09-30T19:36:29;2.00;;;1.32;;
24206;SDS011;12351;52.284;9.160;2022-09-30T19:39:16;2.15;;;1.20;;
24206;SDS011;12351;52.284;9.160;2022-09-30T19:42:03;1.15;;;0.98;;
24206;SDS011;12351;52.284;9.160;2022-09-30T19:44:51;3.92;;;1.35;;
24206;SDS011;12351;52.284;9.160;2022-09-30T19:47:38;3.42;;;1.17;;
24206;SDS011;12351;52.284;9.160;2022-09-30T19:50:25;1.95;;;1.15;;
24206;SDS011;12351;52.284;9.160;2022-09-30T19:53:13;2.72;;;1.10;;
24206;SDS011;12351;52.284;9.160;2022-09-30T19:56:02;2.05;;;1.15;;
24206;SDS011;12351;52.284;9.160;2022-09-30T19:58:51;1.40;;;0.85;;
24206;SDS011;12351;52.284;9.160;2022-09-30T20:01:41;2.00;;;0.98;;
24206;SDS011;12351;52.284;9.160;2022-09-30T20:04:28;2.02;;;0.98;;
24206;SDS011;12351;52.284;9.160;2022-09-30T20:07:15;1.82;;;1.12;;
24206;SDS011;12351;52.284;9.160;2022-09-30T20:10:03;2.08;;;0.98;;
24206;SDS011;12351;52.284;9.160;2022-09-30T20:12:51;4.00;;;1.10;;
24206;SDS011;12351;52.284;9.160;2022-09-30T20:15:38;3.80;;;1.37;;
24206;SDS011;12351;52.284;9.160;2022-09-30T20:18:27;2.25;;;1.20;;
24206;SDS011;12351;52.284;9.160;2022-09-30T20:21:15;3.55;;;1.42;;
24206;SDS011;12351;52.284;9.160;2022-09-30T20:24:03;1.62;;;0.93;;
24206;SDS011;12351;52.284;9.160;2022-09-30T20:26:50;3.72;;;1.30;;
24206;SDS011;12351;52.284;9.160;2022-09-30T20:29:37;2.77;;;1.30;;
24206;SDS011;12351;52.284;9.160;2022-09-30T20:32:25;2.85;;;1.10;;
24206;SDS011;12351;52.284;9.160;2022-09-30T20:35:13;3.27;;;1.27;;
24206;SDS011;12351;52.284;9.160;2022-09-30T20:38:00;3.15;;;1.17;;
24206;SDS011;12351;52.284;9.160;2022-09-30T20:40:51;3.98;;;1.30;;
24206;SDS011;12351;52.284;9.160;2022-09-30T20:43:37;1.65;;;1.20;;
24206;SDS011;12351;52.284;9.160;2022-09-30T20:46:24;2.15;;;1.37;;
24206;SDS011;12351;52.284;9.160;2022-09-30T20:49:12;3.22;;;1.37;;
24206;SDS011;12351;52.284;9.160;2022-09-30T20:51:59;3.72;;;1.30;;
24206;SDS011;12351;52.284;9.160;2022-09-30T20:54:48;2.70;;;1.20;;
24206;SDS011;12351;52.284;9.160;2022-09-30T20:57:37;2.47;;;1.40;;
24206;SDS011;12351;52.284;9.160;2022-09-30T21:00:26;5.47;;;1.52;;
24206;SDS011;12351;52.284;9.160;2022-09-30T21:03:13;3.35;;;1.20;;
24206;SDS011;12351;52.284;9.160;2022-09-30T21:06:01;3.02;;;1.25;;
24206;SDS011;12351;52.284;9.160;2022-09-30T21:08:51;2.80;;;1.67;;
24206;SDS011;12351;52.284;9.160;2022-09-30T21:11:39;2.52;;;1.50;;